A- A+

最近的 Goulburn机场的Mehrabad International机场的Minna机场的

机场信息,从地图到酒店再到航空信息。 以及飞行员的航空天气,METAR(METeorological Aerodrome Report,航空气象条件观测信息)和TAF(终端机场预报:航空气象条件短期预报信息)。 以及其他资源,例如 VAC(Visual Approach Chart)来准备航班.

机场Emmen Air Base 在 (瑞士)

机场Emmen Air Base 它位于附近 和 Emmen 在 1km, Amt Luzern 在 3km, Ebikon 在 3km, Buchrain 在 3km, Gerliswil 在 3km, Eschenbach 在 4km, Perlen 在 5km, Inwil 在 5km, Adligenswil 在 5km, Luzern (lucerne) 在 5km, Littau 在 6km, Meggen 在 7km,

→ 也可以看看 最北端的机场 瑞士最南端的机场 瑞士

→ 也可以看看 机场 在 瑞士

的酒店 机场Emmen Air Base

Booking.com

的鸟瞰图 机场Emmen Air Base

机场代码

海拔 : 427 m = 1401ft

→ 也可以看看 最高的机场 瑞士最低的机场 瑞士

跑道

→ 也可以看看 拥有最长跑道的机场 瑞士

到哪里 机场Emmen Air Base LSME EML

预订飞机旅行

的天气 : 碎云 在 Emmen

nuages fragmentés
14°C

的风 2km/h

机场Emmen Air Base LSME EML航空天气

METAR 机场Emmen Air Base LSME EML机场的

LSME 251320Z VRB02KT 9999 FEW043 SCT077 19/10 Q1017 RMK BLU+

机场Emmen Air Base LSME EML机场METAR解码

LSME机场发行的METAR日期2024年5月25日星期六至13:20 GMT, 警告:此METAR已过期, 已于 10 小时 38 分钟.

可见度为 大于 10km = 大于 6mi.

温度为 19°C = 66°F, 露点是 10°C = 50°F 。 这相当于56%的相对湿度。.

QNH是1017hPa = 30.03inHg

的风 4km/h = 2kt, 风向为 °.

云 : 处少云 4300ft = 1310m. '距离 7700ft = 2350m.

评论: 吹 U 大

没有TAF 为了 机场Emmen Air Base

但航空气象预报可用于机场 Buochs机场的 (LSZC) 在 15km

NOTAM 为了 机场Emmen Air Base

参见航行通告

机场Emmen Air Base 在 (瑞士)附近

最近的机场机场Emmen Air Base 在 (瑞士)

→ 也可以看看 的前机场 瑞士

数据源